sensor_id;sensor_type;location;lat;lon;timestamp;P1;durP1;ratioP1;P2;durP2;ratioP2
58978;SDS011;44763;50.464;30.612;2023-11-19T00:01:01;3.60;;;3.20;;
58978;SDS011;44763;50.464;30.612;2023-11-19T00:03:03;4.80;;;3.00;;
58978;SDS011;44763;50.464;30.612;2023-11-19T00:05:09;3.30;;;3.00;;
58978;SDS011;44763;50.464;30.612;2023-11-19T00:07:15;3.90;;;3.60;;
58978;SDS011;44763;50.464;30.612;2023-11-19T00:09:21;3.70;;;3.40;;
58978;SDS011;44763;50.464;30.612;2023-11-19T00:11:24;5.20;;;3.50;;
58978;SDS011;44763;50.464;30.612;2023-11-19T00:13:26;4.60;;;3.50;;
58978;SDS011;44763;50.464;30.612;2023-11-19T00:15:27;3.70;;;2.60;;
58978;SDS011;44763;50.464;30.612;2023-11-19T00:17:30;4.10;;;3.70;;
58978;SDS011;44763;50.464;30.612;2023-11-19T00:19:31;4.70;;;3.50;;
58978;SDS011;44763;50.464;30.612;2023-11-19T00:21:33;4.60;;;3.10;;
58978;SDS011;44763;50.464;30.612;2023-11-19T00:23:36;3.70;;;3.10;;
58978;SDS011;44763;50.464;30.612;2023-11-19T00:25:38;4.20;;;3.70;;
58978;SDS011;44763;50.464;30.612;2023-11-19T00:27:40;3.70;;;3.40;;
58978;SDS011;44763;50.464;30.612;2023-11-19T00:29:43;4.50;;;3.80;;
58978;SDS011;44763;50.464;30.612;2023-11-19T00:31:47;4.20;;;3.40;;
58978;SDS011;44763;50.464;30.612;2023-11-19T00:33:50;3.40;;;3.10;;
58978;SDS011;44763;50.464;30.612;2023-11-19T00:35:52;3.40;;;3.00;;
58978;SDS011;44763;50.464;30.612;2023-11-19T00:37:54;3.90;;;3.50;;
58978;SDS011;44763;50.464;30.612;2023-11-19T00:39:59;3.60;;;3.20;;
58978;SDS011;44763;50.464;30.612;2023-11-19T00:42:01;3.60;;;3.30;;
58978;SDS011;44763;50.464;30.612;2023-11-19T00:44:03;3.40;;;3.10;;
58978;SDS011;44763;50.464;30.612;2023-11-19T00:46:07;4.60;;;3.90;;
58978;SDS011;44763;50.464;30.612;2023-11-19T00:48:09;3.60;;;3.30;;
58978;SDS011;44763;50.464;30.612;2023-11-19T00:50:13;4.60;;;3.30;;
58978;SDS011;44763;50.464;30.612;2023-11-19T00:52:17;5.00;;;3.60;;
58978;SDS011;44763;50.464;30.612;2023-11-19T00:54:20;6.60;;;4.50;;
58978;SDS011;44763;50.464;30.612;2023-11-19T00:56:22;3.80;;;3.50;;
58978;SDS011;44763;50.464;30.612;2023-11-19T00:58:24;3.70;;;3.30;;
58978;SDS011;44763;50.464;30.612;2023-11-19T01:00:26;3.70;;;3.40;;
58978;SDS011;44763;50.464;30.612;2023-11-19T01:02:30;3.70;;;3.40;;
58978;SDS011;44763;50.464;30.612;2023-11-19T01:04:35;3.60;;;3.30;;
58978;SDS011;44763;50.464;30.612;2023-11-19T01:06:38;5.60;;;3.60;;
58978;SDS011;44763;50.464;30.612;2023-11-19T01:08:50;3.80;;;3.50;;
58978;SDS011;44763;50.464;30.612;2023-11-19T01:10:52;5.00;;;4.10;;
58978;SDS011;44763;50.464;30.612;2023-11-19T01:12:54;3.60;;;3.30;;
58978;SDS011;44763;50.464;30.612;2023-11-19T01:14:59;4.30;;;4.00;;
58978;SDS011;44763;50.464;30.612;2023-11-19T01:17:02;3.60;;;3.30;;
58978;SDS011;44763;50.464;30.612;2023-11-19T01:19:04;4.80;;;4.00;;
58978;SDS011;44763;50.464;30.612;2023-11-19T01:21:18;4.20;;;3.50;;
58978;SDS011;44763;50.464;30.612;2023-11-19T01:23:20;4.30;;;3.70;;
58978;SDS011;44763;50.464;30.612;2023-11-19T01:25:22;4.30;;;3.30;;
58978;SDS011;44763;50.464;30.612;2023-11-19T01:27:24;3.20;;;2.90;;
58978;SDS011;44763;50.464;30.612;2023-11-19T01:29:27;3.40;;;3.10;;
58978;SDS011;44763;50.464;30.612;2023-11-19T01:31:29;3.60;;;3.10;;
58978;SDS011;44763;50.464;30.612;2023-11-19T01:33:32;4.60;;;3.70;;
58978;SDS011;44763;50.464;30.612;2023-11-19T01:35:34;4.40;;;3.20;;
58978;SDS011;44763;50.464;30.612;2023-11-19T01:37:37;3.50;;;3.00;;
58978;SDS011;44763;50.464;30.612;2023-11-19T01:39:39;3.30;;;3.00;;
58978;SDS011;44763;50.464;30.612;2023-11-19T01:41:41;3.30;;;3.00;;
58978;SDS011;44763;50.464;30.612;2023-11-19T01:43:43;5.30;;;3.50;;
58978;SDS011;44763;50.464;30.612;2023-11-19T01:45:49;3.90;;;3.30;;
58978;SDS011;44763;50.464;30.612;2023-11-19T01:47:52;3.60;;;3.30;;
58978;SDS011;44763;50.464;30.612;2023-11-19T01:49:54;4.10;;;3.20;;
58978;SDS011;44763;50.464;30.612;2023-11-19T01:51:58;2.50;;;2.30;;
58978;SDS011;44763;50.464;30.612;2023-11-19T01:54:00;3.80;;;3.40;;
58978;SDS011;44763;50.464;30.612;2023-11-19T01:56:03;3.40;;;2.90;;
58978;SDS011;44763;50.464;30.612;2023-11-19T01:58:10;4.00;;;3.40;;
58978;SDS011;44763;50.464;30.612;2023-11-19T02:00:14;3.80;;;3.40;;
58978;SDS011;44763;50.464;30.612;2023-11-19T02:02:17;3.70;;;3.50;;
58978;SDS011;44763;50.464;30.612;2023-11-19T02:04:22;5.10;;;3.50;;
58978;SDS011;44763;50.464;30.612;2023-11-19T02:06:26;4.50;;;3.80;;
58978;SDS011;44763;50.464;30.612;2023-11-19T02:08:30;8.60;;;3.70;;
58978;SDS011;44763;50.464;30.612;2023-11-19T02:10:32;3.60;;;3.20;;
58978;SDS011;44763;50.464;30.612;2023-11-19T02:12:36;3.10;;;2.80;;
58978;SDS011;44763;50.464;30.612;2023-11-19T02:14:38;4.00;;;3.00;;
58978;SDS011;44763;50.464;30.612;2023-11-19T02:16:42;4.00;;;3.10;;
58978;SDS011;44763;50.464;30.612;2023-11-19T02:18:46;5.20;;;3.90;;
58978;SDS011;44763;50.464;30.612;2023-11-19T02:20:48;3.60;;;3.30;;
58978;SDS011;44763;50.464;30.612;2023-11-19T02:22:51;3.50;;;3.10;;
58978;SDS011;44763;50.464;30.612;2023-11-19T02:24:54;3.80;;;3.50;;
58978;SDS011;44763;50.464;30.612;2023-11-19T02:27:02;3.90;;;2.90;;
58978;SDS011;44763;50.464;30.612;2023-11-19T02:29:15;4.30;;;3.90;;
58978;SDS011;44763;50.464;30.612;2023-11-19T02:31:16;3.00;;;2.50;;
58978;SDS011;44763;50.464;30.612;2023-11-19T02:33:19;2.90;;;2.60;;
58978;SDS011;44763;50.464;30.612;2023-11-19T02:35:20;3.70;;;3.40;;
58978;SDS011;44763;50.464;30.612;2023-11-19T02:37:23;10.80;;;3.30;;
58978;SDS011;44763;50.464;30.612;2023-11-19T02:39:25;3.80;;;3.50;;
58978;SDS011;44763;50.464;30.612;2023-11-19T02:41:28;4.00;;;3.30;;
58978;SDS011;44763;50.464;30.612;2023-11-19T02:43:31;3.40;;;3.20;;
58978;SDS011;44763;50.464;30.612;2023-11-19T02:45:35;4.50;;;3.40;;
58978;SDS011;44763;50.464;30.612;2023-11-19T02:47:38;4.60;;;3.80;;
58978;SDS011;44763;50.464;30.612;2023-11-19T02:49:40;3.60;;;3.20;;
58978;SDS011;44763;50.464;30.612;2023-11-19T02:51:43;4.00;;;2.90;;
58978;SDS011;44763;50.464;30.612;2023-11-19T02:53:45;3.20;;;2.70;;
58978;SDS011;44763;50.464;30.612;2023-11-19T02:57:52;2.60;;;2.40;;
58978;SDS011;44763;50.464;30.612;2023-11-19T02:59:55;3.10;;;2.60;;
58978;SDS011;44763;50.464;30.612;2023-11-19T03:01:57;4.30;;;2.90;;
58978;SDS011;44763;50.464;30.612;2023-11-19T03:04:01;3.40;;;3.20;;
58978;SDS011;44763;50.464;30.612;2023-11-19T03:06:05;3.30;;;3.00;;
58978;SDS011;44763;50.464;30.612;2023-11-19T03:08:07;4.20;;;3.10;;
58978;SDS011;44763;50.464;30.612;2023-11-19T03:10:10;3.60;;;3.30;;
58978;SDS011;44763;50.464;30.612;2023-11-19T03:12:15;3.00;;;2.80;;
58978;SDS011;44763;50.464;30.612;2023-11-19T03:14:17;3.00;;;2.60;;
58978;SDS011;44763;50.464;30.612;2023-11-19T03:16:20;3.50;;;2.50;;
58978;SDS011;44763;50.464;30.612;2023-11-19T03:18:22;3.10;;;2.90;;
58978;SDS011;44763;50.464;30.612;2023-11-19T03:20:24;4.20;;;3.00;;
58978;SDS011;44763;50.464;30.612;2023-11-19T03:22:29;3.30;;;3.10;;
58978;SDS011;44763;50.464;30.612;2023-11-19T03:24:31;4.00;;;3.30;;
58978;SDS011;44763;50.464;30.612;2023-11-19T03:26:34;6.10;;;3.50;;
58978;SDS011;44763;50.464;30.612;2023-11-19T03:28:36;3.00;;;2.20;;
58978;SDS011;44763;50.464;30.612;2023-11-19T03:30:38;3.20;;;3.00;;
58978;SDS011;44763;50.464;30.612;2023-11-19T03:32:40;2.30;;;2.10;;
58978;SDS011;44763;50.464;30.612;2023-11-19T03:34:42;2.90;;;2.70;;
58978;SDS011;44763;50.464;30.612;2023-11-19T03:36:45;3.70;;;3.40;;
58978;SDS011;44763;50.464;30.612;2023-11-19T03:38:47;3.50;;;3.20;;
58978;SDS011;44763;50.464;30.612;2023-11-19T03:40:49;2.70;;;2.40;;
58978;SDS011;44763;50.464;30.612;2023-11-19T03:42:51;3.30;;;2.90;;
58978;SDS011;44763;50.464;30.612;2023-11-19T03:44:53;2.50;;;2.30;;
58978;SDS011;44763;50.464;30.612;2023-11-19T03:46:56;2.90;;;2.60;;
58978;SDS011;44763;50.464;30.612;2023-11-19T03:48:58;2.90;;;2.70;;
58978;SDS011;44763;50.464;30.612;2023-11-19T03:51:00;2.90;;;2.40;;
58978;SDS011;44763;50.464;30.612;2023-11-19T03:53:02;3.80;;;3.40;;
58978;SDS011;44763;50.464;30.612;2023-11-19T03:55:06;3.00;;;2.50;;
58978;SDS011;44763;50.464;30.612;2023-11-19T03:57:10;3.20;;;2.90;;
58978;SDS011;44763;50.464;30.612;2023-11-19T03:59:13;2.70;;;2.50;;
58978;SDS011;44763;50.464;30.612;2023-11-19T04:01:18;3.50;;;3.20;;
58978;SDS011;44763;50.464;30.612;2023-11-19T04:03:21;2.70;;;2.40;;
58978;SDS011;44763;50.464;30.612;2023-11-19T04:05:23;2.80;;;2.20;;
58978;SDS011;44763;50.464;30.612;2023-11-19T04:07:24;3.70;;;2.70;;
58978;SDS011;44763;50.464;30.612;2023-11-19T04:09:26;3.20;;;2.70;;
58978;SDS011;44763;50.464;30.612;2023-11-19T04:11:28;3.40;;;2.90;;
58978;SDS011;44763;50.464;30.612;2023-11-19T04:13:31;4.00;;;3.00;;
58978;SDS011;44763;50.464;30.612;2023-11-19T04:15:34;2.80;;;2.60;;
58978;SDS011;44763;50.464;30.612;2023-11-19T04:17:37;3.10;;;2.90;;
58978;SDS011;44763;50.464;30.612;2023-11-19T04:19:39;2.70;;;2.50;;
58978;SDS011;44763;50.464;30.612;2023-11-19T04:21:43;3.60;;;3.30;;
58978;SDS011;44763;50.464;30.612;2023-11-19T04:23:45;2.50;;;2.30;;
58978;SDS011;44763;50.464;30.612;2023-11-19T04:25:47;2.70;;;2.10;;
58978;SDS011;44763;50.464;30.612;2023-11-19T04:27:49;2.60;;;2.30;;
58978;SDS011;44763;50.464;30.612;2023-11-19T04:29:51;2.40;;;2.20;;
58978;SDS011;44763;50.464;30.612;2023-11-19T04:31:54;3.30;;;3.00;;
58978;SDS011;44763;50.464;30.612;2023-11-19T04:33:56;2.60;;;2.40;;
58978;SDS011;44763;50.464;30.612;2023-11-19T04:35:58;3.00;;;2.80;;
58978;SDS011;44763;50.464;30.612;2023-11-19T04:38:00;3.30;;;3.00;;
58978;SDS011;44763;50.464;30.612;2023-11-19T04:40:03;2.80;;;2.60;;
58978;SDS011;44763;50.464;30.612;2023-11-19T04:42:05;3.20;;;2.70;;
58978;SDS011;44763;50.464;30.612;2023-11-19T04:44:08;3.20;;;2.80;;
58978;SDS011;44763;50.464;30.612;2023-11-19T04:46:10;3.10;;;2.90;;
58978;SDS011;44763;50.464;30.612;2023-11-19T04:48:13;3.30;;;3.00;;
58978;SDS011;44763;50.464;30.612;2023-11-19T04:50:15;2.40;;;2.30;;
58978;SDS011;44763;50.464;30.612;2023-11-19T04:52:17;2.70;;;2.30;;
58978;SDS011;44763;50.464;30.612;2023-11-19T04:54:19;2.70;;;2.50;;
58978;SDS011;44763;50.464;30.612;2023-11-19T04:56:21;3.10;;;2.90;;
58978;SDS011;44763;50.464;30.612;2023-11-19T04:58:25;4.10;;;3.50;;
58978;SDS011;44763;50.464;30.612;2023-11-19T05:00:26;2.70;;;2.50;;
58978;SDS011;44763;50.464;30.612;2023-11-19T05:02:28;2.90;;;2.60;;
58978;SDS011;44763;50.464;30.612;2023-11-19T05:04:31;2.80;;;2.60;;
58978;SDS011;44763;50.464;30.612;2023-11-19T05:06:33;2.10;;;1.80;;
58978;SDS011;44763;50.464;30.612;2023-11-19T05:08:36;2.60;;;2.20;;
58978;SDS011;44763;50.464;30.612;2023-11-19T05:10:38;2.70;;;2.50;;
58978;SDS011;44763;50.464;30.612;2023-11-19T05:12:40;2.70;;;2.50;;
58978;SDS011;44763;50.464;30.612;2023-11-19T05:14:43;3.40;;;2.60;;
58978;SDS011;44763;50.464;30.612;2023-11-19T05:16:51;3.50;;;2.90;;
58978;SDS011;44763;50.464;30.612;2023-11-19T05:18:53;3.00;;;2.40;;
58978;SDS011;44763;50.464;30.612;2023-11-19T05:20:55;3.30;;;3.00;;
58978;SDS011;44763;50.464;30.612;2023-11-19T05:22:57;3.00;;;2.30;;
58978;SDS011;44763;50.464;30.612;2023-11-19T05:25:02;2.40;;;2.20;;
58978;SDS011;44763;50.464;30.612;2023-11-19T05:27:04;4.40;;;2.20;;
58978;SDS011;44763;50.464;30.612;2023-11-19T05:29:06;22.90;;;3.50;;
58978;SDS011;44763;50.464;30.612;2023-11-19T05:31:08;3.00;;;2.70;;
58978;SDS011;44763;50.464;30.612;2023-11-19T05:33:10;2.70;;;2.50;;
58978;SDS011;44763;50.464;30.612;2023-11-19T05:35:12;3.90;;;2.90;;
58978;SDS011;44763;50.464;30.612;2023-11-19T05:37:14;3.70;;;2.50;;
58978;SDS011;44763;50.464;30.612;2023-11-19T05:39:16;3.70;;;3.10;;
58978;SDS011;44763;50.464;30.612;2023-11-19T05:41:21;2.20;;;2.10;;
58978;SDS011;44763;50.464;30.612;2023-11-19T05:43:23;5.00;;;3.10;;
58978;SDS011;44763;50.464;30.612;2023-11-19T05:45:25;3.00;;;2.80;;
58978;SDS011;44763;50.464;30.612;2023-11-19T05:47:29;1.90;;;1.80;;
58978;SDS011;44763;50.464;30.612;2023-11-19T05:49:33;2.40;;;2.20;;
58978;SDS011;44763;50.464;30.612;2023-11-19T05:51:40;2.70;;;2.40;;
58978;SDS011;44763;50.464;30.612;2023-11-19T05:53:43;2.80;;;2.60;;
58978;SDS011;44763;50.464;30.612;2023-11-19T05:55:45;3.80;;;2.80;;
58978;SDS011;44763;50.464;30.612;2023-11-19T05:57:59;2.80;;;2.60;;
58978;SDS011;44763;50.464;30.612;2023-11-19T06:00:01;2.70;;;2.50;;
58978;SDS011;44763;50.464;30.612;2023-11-19T06:02:11;3.20;;;2.80;;
58978;SDS011;44763;50.464;30.612;2023-11-19T06:04:13;2.10;;;2.00;;
58978;SDS011;44763;50.464;30.612;2023-11-19T06:06:15;2.30;;;2.10;;
58978;SDS011;44763;50.464;30.612;2023-11-19T06:08:18;2.80;;;2.50;;
58978;SDS011;44763;50.464;30.612;2023-11-19T06:10:22;2.10;;;2.00;;
58978;SDS011;44763;50.464;30.612;2023-11-19T06:12:26;1.70;;;1.60;;
58978;SDS011;44763;50.464;30.612;2023-11-19T06:14:29;2.60;;;2.30;;
58978;SDS011;44763;50.464;30.612;2023-11-19T06:16:31;4.20;;;2.10;;
58978;SDS011;44763;50.464;30.612;2023-11-19T06:18:33;3.30;;;3.00;;
58978;SDS011;44763;50.464;30.612;2023-11-19T06:20:35;4.50;;;3.10;;
58978;SDS011;44763;50.464;30.612;2023-11-19T06:22:40;6.10;;;3.40;;
58978;SDS011;44763;50.464;30.612;2023-11-19T06:24:45;4.10;;;3.60;;
58978;SDS011;44763;50.464;30.612;2023-11-19T06:26:47;2.90;;;2.50;;
58978;SDS011;44763;50.464;30.612;2023-11-19T06:28:49;3.70;;;2.30;;
58978;SDS011;44763;50.464;30.612;2023-11-19T06:30:51;3.30;;;2.50;;
58978;SDS011;44763;50.464;30.612;2023-11-19T06:32:53;2.80;;;2.40;;
58978;SDS011;44763;50.464;30.612;2023-11-19T06:34:55;2.30;;;2.10;;
58978;SDS011;44763;50.464;30.612;2023-11-19T06:36:57;1.90;;;1.80;;
58978;SDS011;44763;50.464;30.612;2023-11-19T06:38:59;2.40;;;2.00;;
58978;SDS011;44763;50.464;30.612;2023-11-19T06:41:01;1.60;;;1.50;;
58978;SDS011;44763;50.464;30.612;2023-11-19T06:43:03;2.80;;;1.90;;
58978;SDS011;44763;50.464;30.612;2023-11-19T06:45:06;1.80;;;1.70;;
58978;SDS011;44763;50.464;30.612;2023-11-19T06:47:08;2.00;;;1.90;;
58978;SDS011;44763;50.464;30.612;2023-11-19T06:49:10;2.30;;;2.10;;
58978;SDS011;44763;50.464;30.612;2023-11-19T06:51:12;2.60;;;2.40;;
58978;SDS011;44763;50.464;30.612;2023-11-19T06:53:14;2.10;;;1.90;;
58978;SDS011;44763;50.464;30.612;2023-11-19T06:57:07;2.00;;;1.90;;
58978;SDS011;44763;50.464;30.612;2023-11-19T06:59:11;2.20;;;2.00;;
58978;SDS011;44763;50.464;30.612;2023-11-19T07:01:13;4.00;;;1.50;;
58978;SDS011;44763;50.464;30.612;2023-11-19T07:03:16;3.30;;;2.00;;
58978;SDS011;44763;50.464;30.612;2023-11-19T07:05:19;2.40;;;1.80;;
58978;SDS011;44763;50.464;30.612;2023-11-19T07:07:21;2.80;;;1.60;;
58978;SDS011;44763;50.464;30.612;2023-11-19T07:09:23;3.80;;;1.50;;
58978;SDS011;44763;50.464;30.612;2023-11-19T07:11:25;1.80;;;1.70;;
58978;SDS011;44763;50.464;30.612;2023-11-19T07:13:27;2.70;;;2.00;;
58978;SDS011;44763;50.464;30.612;2023-11-19T07:15:30;2.70;;;2.20;;
58978;SDS011;44763;50.464;30.612;2023-11-19T07:17:32;2.20;;;2.00;;
58978;SDS011;44763;50.464;30.612;2023-11-19T07:19:35;2.10;;;1.90;;
58978;SDS011;44763;50.464;30.612;2023-11-19T07:21:41;1.40;;;1.30;;
58978;SDS011;44763;50.464;30.612;2023-11-19T07:23:45;2.70;;;1.80;;
58978;SDS011;44763;50.464;30.612;2023-11-19T07:25:48;1.50;;;1.20;;
58978;SDS011;44763;50.464;30.612;2023-11-19T07:27:52;4.00;;;2.30;;
58978;SDS011;44763;50.464;30.612;2023-11-19T07:29:54;2.70;;;1.60;;
58978;SDS011;44763;50.464;30.612;2023-11-19T07:31:57;2.00;;;1.90;;
58978;SDS011;44763;50.464;30.612;2023-11-19T07:34:00;1.80;;;1.60;;
58978;SDS011;44763;50.464;30.612;2023-11-19T07:36:02;1.40;;;1.30;;
58978;SDS011;44763;50.464;30.612;2023-11-19T07:38:04;1.50;;;1.40;;
58978;SDS011;44763;50.464;30.612;2023-11-19T07:40:07;1.60;;;1.30;;
58978;SDS011;44763;50.464;30.612;2023-11-19T07:42:10;2.90;;;1.40;;
58978;SDS011;44763;50.464;30.612;2023-11-19T07:44:12;1.10;;;1.00;;
58978;SDS011;44763;50.464;30.612;2023-11-19T07:46:15;3.20;;;1.30;;
58978;SDS011;44763;50.464;30.612;2023-11-19T07:48:17;1.90;;;1.70;;
58978;SDS011;44763;50.464;30.612;2023-11-19T07:50:24;1.60;;;1.50;;
58978;SDS011;44763;50.464;30.612;2023-11-19T07:52:27;1.40;;;1.30;;
58978;SDS011;44763;50.464;30.612;2023-11-19T07:54:31;2.30;;;2.10;;
58978;SDS011;44763;50.464;30.612;2023-11-19T07:56:33;1.40;;;1.30;;
58978;SDS011;44763;50.464;30.612;2023-11-19T07:58:37;1.20;;;1.10;;
58978;SDS011;44763;50.464;30.612;2023-11-19T08:00:39;1.60;;;1.50;;
58978;SDS011;44763;50.464;30.612;2023-11-19T08:02:42;2.50;;;2.30;;
58978;SDS011;44763;50.464;30.612;2023-11-19T08:04:44;2.40;;;2.20;;
58978;SDS011;44763;50.464;30.612;2023-11-19T08:06:47;2.00;;;1.10;;
58978;SDS011;44763;50.464;30.612;2023-11-19T08:08:49;3.20;;;1.50;;
58978;SDS011;44763;50.464;30.612;2023-11-19T08:10:51;1.90;;;1.60;;
58978;SDS011;44763;50.464;30.612;2023-11-19T08:12:55;1.80;;;1.60;;
58978;SDS011;44763;50.464;30.612;2023-11-19T08:14:57;1.80;;;1.40;;
58978;SDS011;44763;50.464;30.612;2023-11-19T08:17:00;3.80;;;1.60;;
58978;SDS011;44763;50.464;30.612;2023-11-19T08:19:02;4.10;;;1.70;;
58978;SDS011;44763;50.464;30.612;2023-11-19T08:21:05;1.70;;;1.50;;
58978;SDS011;44763;50.464;30.612;2023-11-19T08:23:09;2.60;;;2.30;;
58978;SDS011;44763;50.464;30.612;2023-11-19T08:25:11;2.30;;;1.90;;
58978;SDS011;44763;50.464;30.612;2023-11-19T08:27:12;2.20;;;2.00;;
58978;SDS011;44763;50.464;30.612;2023-11-19T08:29:14;3.40;;;1.90;;
58978;SDS011;44763;50.464;30.612;2023-11-19T08:31:18;2.10;;;1.50;;
58978;SDS011;44763;50.464;30.612;2023-11-19T08:33:20;2.80;;;2.60;;
58978;SDS011;44763;50.464;30.612;2023-11-19T08:35:24;2.00;;;1.90;;
58978;SDS011;44763;50.464;30.612;2023-11-19T08:37:26;2.20;;;2.00;;
58978;SDS011;44763;50.464;30.612;2023-11-19T08:39:28;3.90;;;1.60;;
58978;SDS011;44763;50.464;30.612;2023-11-19T08:41:32;1.90;;;1.70;;
58978;SDS011;44763;50.464;30.612;2023-11-19T08:43:35;1.30;;;1.10;;
58978;SDS011;44763;50.464;30.612;2023-11-19T08:45:37;1.70;;;1.60;;
58978;SDS011;44763;50.464;30.612;2023-11-19T08:47:38;1.20;;;1.10;;
58978;SDS011;44763;50.464;30.612;2023-11-19T08:49:42;1.80;;;1.50;;
58978;SDS011;44763;50.464;30.612;2023-11-19T08:51:44;2.20;;;2.10;;
58978;SDS011;44763;50.464;30.612;2023-11-19T08:55:51;1.90;;;1.50;;
58978;SDS011;44763;50.464;30.612;2023-11-19T08:57:53;2.70;;;1.70;;
58978;SDS011;44763;50.464;30.612;2023-11-19T08:59:57;1.50;;;1.40;;
58978;SDS011;44763;50.464;30.612;2023-11-19T09:01:59;2.00;;;1.90;;
58978;SDS011;44763;50.464;30.612;2023-11-19T09:04:01;2.00;;;1.80;;
58978;SDS011;44763;50.464;30.612;2023-11-19T09:06:04;1.50;;;1.40;;
58978;SDS011;44763;50.464;30.612;2023-11-19T09:08:06;0.90;;;0.90;;
58978;SDS011;44763;50.464;30.612;2023-11-19T09:10:09;1.60;;;1.40;;
58978;SDS011;44763;50.464;30.612;2023-11-19T09:12:13;1.80;;;1.70;;
58978;SDS011;44763;50.464;30.612;2023-11-19T09:14:15;1.00;;;0.90;;
58978;SDS011;44763;50.464;30.612;2023-11-19T09:16:17;1.70;;;1.30;;
58978;SDS011;44763;50.464;30.612;2023-11-19T09:18:20;3.00;;;0.90;;
58978;SDS011;44763;50.464;30.612;2023-11-19T09:20:25;2.10;;;1.80;;
58978;SDS011;44763;50.464;30.612;2023-11-19T09:22:26;1.70;;;1.20;;
58978;SDS011;44763;50.464;30.612;2023-11-19T09:24:28;2.90;;;1.50;;
58978;SDS011;44763;50.464;30.612;2023-11-19T09:26:31;1.20;;;1.10;;
58978;SDS011;44763;50.464;30.612;2023-11-19T09:28:33;2.30;;;1.10;;
58978;SDS011;44763;50.464;30.612;2023-11-19T09:30:35;1.50;;;1.40;;
58978;SDS011;44763;50.464;30.612;2023-11-19T09:32:37;0.90;;;0.90;;
58978;SDS011;44763;50.464;30.612;2023-11-19T09:34:41;1.10;;;1.00;;
58978;SDS011;44763;50.464;30.612;2023-11-19T09:36:43;1.70;;;1.50;;
58978;SDS011;44763;50.464;30.612;2023-11-19T09:38:45;2.00;;;1.90;;
58978;SDS011;44763;50.464;30.612;2023-11-19T09:40:47;1.20;;;1.00;;
58978;SDS011;44763;50.464;30.612;2023-11-19T09:42:49;1.10;;;1.10;;
58978;SDS011;44763;50.464;30.612;2023-11-19T09:44:51;2.60;;;2.00;;
58978;SDS011;44763;50.464;30.612;2023-11-19T09:46:56;1.50;;;1.50;;
58978;SDS011;44763;50.464;30.612;2023-11-19T09:49:00;2.20;;;2.00;;
58978;SDS011;44763;50.464;30.612;2023-11-19T09:53:08;1.90;;;1.70;;
58978;SDS011;44763;50.464;30.612;2023-11-19T09:55:12;4.50;;;1.90;;
58978;SDS011;44763;50.464;30.612;2023-11-19T09:57:16;5.10;;;2.30;;
58978;SDS011;44763;50.464;30.612;2023-11-19T09:59:19;3.30;;;3.10;;
58978;SDS011;44763;50.464;30.612;2023-11-19T10:01:21;2.40;;;2.10;;
58978;SDS011;44763;50.464;30.612;2023-11-19T10:03:31;2.30;;;2.10;;
58978;SDS011;44763;50.464;30.612;2023-11-19T10:05:40;2.80;;;1.90;;
58978;SDS011;44763;50.464;30.612;2023-11-19T10:07:42;3.00;;;2.70;;
58978;SDS011;44763;50.464;30.612;2023-11-19T10:09:46;2.30;;;2.10;;
58978;SDS011;44763;50.464;30.612;2023-11-19T10:11:49;2.40;;;2.20;;
58978;SDS011;44763;50.464;30.612;2023-11-19T10:13:53;4.60;;;2.40;;
58978;SDS011;44763;50.464;30.612;2023-11-19T10:15:55;2.80;;;2.50;;
58978;SDS011;44763;50.464;30.612;2023-11-19T10:18:01;2.80;;;2.30;;
58978;SDS011;44763;50.464;30.612;2023-11-19T10:20:03;3.60;;;2.70;;
58978;SDS011;44763;50.464;30.612;2023-11-19T10:22:06;3.30;;;2.10;;
58978;SDS011;44763;50.464;30.612;2023-11-19T10:24:08;2.40;;;1.90;;
58978;SDS011;44763;50.464;30.612;2023-11-19T10:26:11;2.00;;;1.90;;
58978;SDS011;44763;50.464;30.612;2023-11-19T10:28:15;4.90;;;3.90;;
58978;SDS011;44763;50.464;30.612;2023-11-19T10:30:20;2.50;;;2.30;;
58978;SDS011;44763;50.464;30.612;2023-11-19T10:32:23;2.80;;;2.60;;
58978;SDS011;44763;50.464;30.612;2023-11-19T10:34:28;2.60;;;2.20;;
58978;SDS011;44763;50.464;30.612;2023-11-19T10:36:40;5.00;;;4.00;;
58978;SDS011;44763;50.464;30.612;2023-11-19T10:38:55;8.70;;;6.60;;
58978;SDS011;44763;50.464;30.612;2023-11-19T10:40:58;5.70;;;4.40;;
58978;SDS011;44763;50.464;30.612;2023-11-19T10:43:03;2.40;;;2.20;;
58978;SDS011;44763;50.464;30.612;2023-11-19T10:45:10;4.00;;;2.80;;
58978;SDS011;44763;50.464;30.612;2023-11-19T10:47:24;2.80;;;2.50;;
58978;SDS011;44763;50.464;30.612;2023-11-19T10:49:30;4.00;;;2.90;;
58978;SDS011;44763;50.464;30.612;2023-11-19T10:51:32;2.40;;;2.20;;
58978;SDS011;44763;50.464;30.612;2023-11-19T10:53:37;2.40;;;2.20;;
58978;SDS011;44763;50.464;30.612;2023-11-19T10:55:41;4.90;;;2.50;;
58978;SDS011;44763;50.464;30.612;2023-11-19T10:57:43;9.60;;;5.50;;
58978;SDS011;44763;50.464;30.612;2023-11-19T10:59:52;6.80;;;5.00;;
58978;SDS011;44763;50.464;30.612;2023-11-19T11:01:57;5.60;;;4.70;;
58978;SDS011;44763;50.464;30.612;2023-11-19T11:04:02;3.40;;;3.10;;
58978;SDS011;44763;50.464;30.612;2023-11-19T11:06:05;5.20;;;3.80;;
58978;SDS011;44763;50.464;30.612;2023-11-19T11:08:13;2.60;;;2.40;;
58978;SDS011;44763;50.464;30.612;2023-11-19T11:10:17;8.50;;;6.60;;
58978;SDS011;44763;50.464;30.612;2023-11-19T11:12:23;4.30;;;3.40;;
58978;SDS011;44763;50.464;30.612;2023-11-19T11:14:27;2.30;;;2.20;;
58978;SDS011;44763;50.464;30.612;2023-11-19T11:16:30;1.70;;;1.60;;
58978;SDS011;44763;50.464;30.612;2023-11-19T11:18:33;2.20;;;1.90;;
58978;SDS011;44763;50.464;30.612;2023-11-19T11:20:35;2.10;;;2.00;;
58978;SDS011;44763;50.464;30.612;2023-11-19T11:23:08;3.20;;;2.20;;
58978;SDS011;44763;50.464;30.612;2023-11-19T11:25:06;2.40;;;2.10;;
58978;SDS011;44763;50.464;30.612;2023-11-19T11:36:42;2.00;;;1.80;;
58978;SDS011;44763;50.464;30.612;2023-11-19T11:38:47;1.60;;;1.10;;
58978;SDS011;44763;50.464;30.612;2023-11-19T11:45:45;1.70;;;1.60;;
58978;SDS011;44763;50.464;30.612;2023-11-19T11:49:56;1.80;;;1.70;;
58978;SDS011;44763;50.464;30.612;2023-11-19T11:52:06;2.00;;;1.70;;
58978;SDS011;44763;50.464;30.612;2023-11-19T11:54:30;2.60;;;2.40;;
58978;SDS011;44763;50.464;30.612;2023-11-19T11:56:33;3.60;;;2.00;;
58978;SDS011;44763;50.464;30.612;2023-11-19T11:58:38;1.60;;;1.50;;
58978;SDS011;44763;50.464;30.612;2023-11-19T12:00:46;2.70;;;2.50;;
58978;SDS011;44763;50.464;30.612;2023-11-19T12:02:49;1.80;;;1.70;;
58978;SDS011;44763;50.464;30.612;2023-11-19T12:04:51;3.40;;;2.50;;
58978;SDS011;44763;50.464;30.612;2023-11-19T12:09:19;2.90;;;2.60;;
58978;SDS011;44763;50.464;30.612;2023-11-19T12:11:21;3.20;;;2.40;;
58978;SDS011;44763;50.464;30.612;2023-11-19T12:13:29;2.00;;;1.80;;
58978;SDS011;44763;50.464;30.612;2023-11-19T12:18:00;2.20;;;2.00;;
58978;SDS011;44763;50.464;30.612;2023-11-19T12:20:04;2.70;;;2.30;;
58978;SDS011;44763;50.464;30.612;2023-11-19T12:22:10;2.60;;;2.20;;
58978;SDS011;44763;50.464;30.612;2023-11-19T12:24:12;2.30;;;1.90;;
58978;SDS011;44763;50.464;30.612;2023-11-19T12:26:34;2.50;;;2.10;;
58978;SDS011;44763;50.464;30.612;2023-11-19T12:28:38;2.00;;;1.70;;
58978;SDS011;44763;50.464;30.612;2023-11-19T12:30:40;2.50;;;1.90;;
58978;SDS011;44763;50.464;30.612;2023-11-19T12:32:44;2.10;;;2.00;;
58978;SDS011;44763;50.464;30.612;2023-11-19T12:34:46;4.60;;;3.30;;
58978;SDS011;44763;50.464;30.612;2023-11-19T12:36:48;3.50;;;2.80;;
58978;SDS011;44763;50.464;30.612;2023-11-19T12:38:50;2.50;;;2.30;;
58978;SDS011;44763;50.464;30.612;2023-11-19T12:41:08;3.30;;;2.90;;